sensor_id;sensor_type;location;lat;lon;timestamp;P1;durP1;ratioP1;P2;durP2;ratioP2
66298;SDS011;53098;47.658;8.578;2022-07-11T00:02:10;4.90;;;1.45;;
66298;SDS011;53098;47.658;8.578;2022-07-11T00:04:35;3.77;;;1.17;;
66298;SDS011;53098;47.658;8.578;2022-07-11T00:07:01;1.50;;;0.90;;
66298;SDS011;53098;47.658;8.578;2022-07-11T00:09:27;3.83;;;1.30;;
66298;SDS011;53098;47.658;8.578;2022-07-11T00:11:52;3.10;;;1.25;;
66298;SDS011;53098;47.658;8.578;2022-07-11T00:14:18;4.68;;;1.45;;
66298;SDS011;53098;47.658;8.578;2022-07-11T00:16:44;4.35;;;1.20;;
66298;SDS011;53098;47.658;8.578;2022-07-11T00:19:09;2.93;;;1.10;;
66298;SDS011;53098;47.658;8.578;2022-07-11T00:21:35;3.85;;;1.20;;
66298;SDS011;53098;47.658;8.578;2022-07-11T00:24:00;5.57;;;1.30;;
66298;SDS011;53098;47.658;8.578;2022-07-11T00:26:25;5.03;;;1.30;;
66298;SDS011;53098;47.658;8.578;2022-07-11T00:28:51;3.93;;;1.13;;
66298;SDS011;53098;47.658;8.578;2022-07-11T00:31:16;4.17;;;1.20;;
66298;SDS011;53098;47.658;8.578;2022-07-11T00:33:41;6.60;;;1.40;;
66298;SDS011;53098;47.658;8.578;2022-07-11T00:36:07;4.03;;;1.33;;
66298;SDS011;53098;47.658;8.578;2022-07-11T00:38:32;5.67;;;1.37;;
66298;SDS011;53098;47.658;8.578;2022-07-11T00:40:57;3.50;;;1.10;;
66298;SDS011;53098;47.658;8.578;2022-07-11T00:43:29;5.13;;;1.20;;
66298;SDS011;53098;47.658;8.578;2022-07-11T00:45:55;2.50;;;1.08;;
66298;SDS011;53098;47.658;8.578;2022-07-11T00:48:23;3.77;;;1.20;;
66298;SDS011;53098;47.658;8.578;2022-07-11T00:50:48;4.28;;;1.20;;
66298;SDS011;53098;47.658;8.578;2022-07-11T00:53:14;3.03;;;1.00;;
66298;SDS011;53098;47.658;8.578;2022-07-11T00:55:40;5.68;;;1.35;;
66298;SDS011;53098;47.658;8.578;2022-07-11T00:58:05;3.63;;;1.00;;
66298;SDS011;53098;47.658;8.578;2022-07-11T01:00:31;3.75;;;1.02;;
66298;SDS011;53098;47.658;8.578;2022-07-11T01:02:56;2.78;;;1.02;;
66298;SDS011;53098;47.658;8.578;2022-07-11T01:05:21;3.22;;;0.98;;
66298;SDS011;53098;47.658;8.578;2022-07-11T01:07:47;5.80;;;1.00;;
66298;SDS011;53098;47.658;8.578;2022-07-11T01:10:12;3.87;;;1.10;;
66298;SDS011;53098;47.658;8.578;2022-07-11T01:12:37;4.40;;;1.10;;
66298;SDS011;53098;47.658;8.578;2022-07-11T01:15:03;3.60;;;1.33;;
66298;SDS011;53098;47.658;8.578;2022-07-11T01:17:28;8.68;;;1.40;;
66298;SDS011;53098;47.658;8.578;2022-07-11T01:19:54;1.35;;;0.80;;
66298;SDS011;53098;47.658;8.578;2022-07-11T01:22:21;4.20;;;1.00;;
66298;SDS011;53098;47.658;8.578;2022-07-11T01:24:48;2.03;;;1.00;;
66298;SDS011;53098;47.658;8.578;2022-07-11T01:27:13;4.82;;;1.30;;
66298;SDS011;53098;47.658;8.578;2022-07-11T01:29:40;2.72;;;1.00;;
66298;SDS011;53098;47.658;8.578;2022-07-11T01:32:06;4.23;;;1.27;;
66298;SDS011;53098;47.658;8.578;2022-07-11T01:34:31;2.97;;;1.10;;
66298;SDS011;53098;47.658;8.578;2022-07-11T01:36:56;3.73;;;1.27;;
66298;SDS011;53098;47.658;8.578;2022-07-11T01:39:21;4.13;;;1.20;;
66298;SDS011;53098;47.658;8.578;2022-07-11T01:41:47;2.77;;;0.90;;
66298;SDS011;53098;47.658;8.578;2022-07-11T01:44:12;4.40;;;1.00;;
66298;SDS011;53098;47.658;8.578;2022-07-11T01:46:37;5.73;;;1.10;;
66298;SDS011;53098;47.658;8.578;2022-07-11T01:49:02;3.70;;;1.20;;
66298;SDS011;53098;47.658;8.578;2022-07-11T01:51:28;3.90;;;1.10;;
66298;SDS011;53098;47.658;8.578;2022-07-11T01:53:53;4.57;;;1.20;;
66298;SDS011;53098;47.658;8.578;2022-07-11T01:56:18;3.37;;;1.10;;
66298;SDS011;53098;47.658;8.578;2022-07-11T01:58:44;3.30;;;1.10;;
66298;SDS011;53098;47.658;8.578;2022-07-11T02:01:09;4.57;;;1.37;;
66298;SDS011;53098;47.658;8.578;2022-07-11T02:03:36;5.60;;;1.30;;
66298;SDS011;53098;47.658;8.578;2022-07-11T02:06:01;2.17;;;1.00;;
66298;SDS011;53098;47.658;8.578;2022-07-11T02:08:26;4.83;;;0.97;;
66298;SDS011;53098;47.658;8.578;2022-07-11T02:10:52;2.47;;;1.27;;
66298;SDS011;53098;47.658;8.578;2022-07-11T02:13:18;4.40;;;1.50;;
66298;SDS011;53098;47.658;8.578;2022-07-11T02:15:44;5.65;;;1.30;;
66298;SDS011;53098;47.658;8.578;2022-07-11T02:18:10;2.78;;;1.10;;
66298;SDS011;53098;47.658;8.578;2022-07-11T02:20:35;4.80;;;1.10;;
66298;SDS011;53098;47.658;8.578;2022-07-11T02:23:00;2.97;;;1.43;;
66298;SDS011;53098;47.658;8.578;2022-07-11T02:25:26;9.63;;;1.35;;
66298;SDS011;53098;47.658;8.578;2022-07-11T02:27:51;4.85;;;1.33;;
66298;SDS011;53098;47.658;8.578;2022-07-11T02:30:17;2.97;;;1.13;;
66298;SDS011;53098;47.658;8.578;2022-07-11T02:32:42;3.07;;;1.30;;
66298;SDS011;53098;47.658;8.578;2022-07-11T02:35:07;4.93;;;1.23;;
66298;SDS011;53098;47.658;8.578;2022-07-11T02:37:33;4.78;;;1.30;;
66298;SDS011;53098;47.658;8.578;2022-07-11T02:39:58;3.67;;;1.00;;
66298;SDS011;53098;47.658;8.578;2022-07-11T02:42:24;4.35;;;1.38;;
66298;SDS011;53098;47.658;8.578;2022-07-11T02:44:49;6.25;;;1.40;;
66298;SDS011;53098;47.658;8.578;2022-07-11T02:47:14;3.07;;;1.30;;
66298;SDS011;53098;47.658;8.578;2022-07-11T02:49:40;5.33;;;1.30;;
66298;SDS011;53098;47.658;8.578;2022-07-11T02:52:05;3.17;;;1.20;;
66298;SDS011;53098;47.658;8.578;2022-07-11T02:54:31;2.13;;;0.95;;
66298;SDS011;53098;47.658;8.578;2022-07-11T02:56:56;4.63;;;1.40;;
66298;SDS011;53098;47.658;8.578;2022-07-11T02:59:21;7.17;;;1.47;;
66298;SDS011;53098;47.658;8.578;2022-07-11T03:01:47;3.63;;;1.30;;
66298;SDS011;53098;47.658;8.578;2022-07-11T03:04:12;4.45;;;1.20;;
66298;SDS011;53098;47.658;8.578;2022-07-11T03:06:38;2.70;;;1.13;;
66298;SDS011;53098;47.658;8.578;2022-07-11T03:09:03;3.60;;;1.30;;
66298;SDS011;53098;47.658;8.578;2022-07-11T03:11:28;3.47;;;1.27;;
66298;SDS011;53098;47.658;8.578;2022-07-11T03:13:53;3.83;;;1.23;;
66298;SDS011;53098;47.658;8.578;2022-07-11T03:16:19;4.50;;;1.73;;
66298;SDS011;53098;47.658;8.578;2022-07-11T03:18:44;2.78;;;0.93;;
66298;SDS011;53098;47.658;8.578;2022-07-11T03:21:09;4.83;;;1.30;;
66298;SDS011;53098;47.658;8.578;2022-07-11T03:23:35;6.53;;;1.10;;
66298;SDS011;53098;47.658;8.578;2022-07-11T03:26:00;4.33;;;1.40;;
66298;SDS011;53098;47.658;8.578;2022-07-11T03:28:26;4.15;;;1.45;;
66298;SDS011;53098;47.658;8.578;2022-07-11T03:30:51;8.65;;;1.27;;
66298;SDS011;53098;47.658;8.578;2022-07-11T03:33:16;4.13;;;1.23;;
66298;SDS011;53098;47.658;8.578;2022-07-11T03:35:41;5.73;;;1.53;;
66298;SDS011;53098;47.658;8.578;2022-07-11T03:38:07;2.17;;;1.13;;
66298;SDS011;53098;47.658;8.578;2022-07-11T03:40:32;5.53;;;1.40;;
66298;SDS011;53098;47.658;8.578;2022-07-11T03:42:58;5.55;;;1.65;;
66298;SDS011;53098;47.658;8.578;2022-07-11T03:45:23;4.45;;;1.17;;
66298;SDS011;53098;47.658;8.578;2022-07-11T03:47:49;2.95;;;1.20;;
66298;SDS011;53098;47.658;8.578;2022-07-11T03:50:14;4.00;;;1.27;;
66298;SDS011;53098;47.658;8.578;2022-07-11T03:52:40;2.97;;;1.10;;
66298;SDS011;53098;47.658;8.578;2022-07-11T03:55:05;3.65;;;1.27;;
66298;SDS011;53098;47.658;8.578;2022-07-11T03:57:30;6.25;;;1.55;;
66298;SDS011;53098;47.658;8.578;2022-07-11T03:59:56;4.27;;;1.30;;
66298;SDS011;53098;47.658;8.578;2022-07-11T04:02:21;3.73;;;1.20;;
66298;SDS011;53098;47.658;8.578;2022-07-11T04:04:46;4.03;;;1.60;;
66298;SDS011;53098;47.658;8.578;2022-07-11T04:07:12;6.73;;;1.60;;
66298;SDS011;53098;47.658;8.578;2022-07-11T04:09:37;5.43;;;1.40;;
66298;SDS011;53098;47.658;8.578;2022-07-11T04:12:02;4.07;;;1.47;;
66298;SDS011;53098;47.658;8.578;2022-07-11T04:14:27;5.03;;;1.35;;
66298;SDS011;53098;47.658;8.578;2022-07-11T04:16:53;7.40;;;1.60;;
66298;SDS011;53098;47.658;8.578;2022-07-11T04:19:18;5.33;;;1.27;;
66298;SDS011;53098;47.658;8.578;2022-07-11T04:21:43;6.23;;;1.47;;
66298;SDS011;53098;47.658;8.578;2022-07-11T04:24:08;4.63;;;1.50;;
66298;SDS011;53098;47.658;8.578;2022-07-11T04:26:34;6.33;;;1.43;;
66298;SDS011;53098;47.658;8.578;2022-07-11T04:28:59;3.77;;;1.20;;
66298;SDS011;53098;47.658;8.578;2022-07-11T04:31:25;4.07;;;1.20;;
66298;SDS011;53098;47.658;8.578;2022-07-11T04:33:50;3.58;;;1.30;;
66298;SDS011;53098;47.658;8.578;2022-07-11T04:36:15;3.73;;;1.60;;
66298;SDS011;53098;47.658;8.578;2022-07-11T04:38:41;5.53;;;1.73;;
66298;SDS011;53098;47.658;8.578;2022-07-11T04:41:06;2.77;;;1.20;;
66298;SDS011;53098;47.658;8.578;2022-07-11T04:43:31;5.35;;;1.33;;
66298;SDS011;53098;47.658;8.578;2022-07-11T04:45:56;5.23;;;1.60;;
66298;SDS011;53098;47.658;8.578;2022-07-11T04:48:22;5.33;;;1.40;;
66298;SDS011;53098;47.658;8.578;2022-07-11T04:50:47;7.13;;;1.30;;
66298;SDS011;53098;47.658;8.578;2022-07-11T04:53:12;6.17;;;1.50;;
66298;SDS011;53098;47.658;8.578;2022-07-11T04:55:38;6.63;;;1.67;;
66298;SDS011;53098;47.658;8.578;2022-07-11T04:58:03;5.57;;;1.50;;
66298;SDS011;53098;47.658;8.578;2022-07-11T05:00:28;6.87;;;1.40;;
66298;SDS011;53098;47.658;8.578;2022-07-11T05:02:54;5.13;;;1.27;;
66298;SDS011;53098;47.658;8.578;2022-07-11T05:05:19;4.73;;;1.67;;
66298;SDS011;53098;47.658;8.578;2022-07-11T05:07:44;4.93;;;1.30;;
66298;SDS011;53098;47.658;8.578;2022-07-11T05:10:09;4.40;;;1.40;;
66298;SDS011;53098;47.658;8.578;2022-07-11T05:12:35;5.77;;;1.30;;
66298;SDS011;53098;47.658;8.578;2022-07-11T05:15:00;7.47;;;1.50;;
66298;SDS011;53098;47.658;8.578;2022-07-11T05:17:26;3.40;;;0.93;;
66298;SDS011;53098;47.658;8.578;2022-07-11T05:19:51;4.85;;;1.50;;
66298;SDS011;53098;47.658;8.578;2022-07-11T05:22:16;3.13;;;1.13;;
66298;SDS011;53098;47.658;8.578;2022-07-11T05:24:42;3.30;;;1.10;;
66298;SDS011;53098;47.658;8.578;2022-07-11T05:27:07;4.50;;;1.37;;
66298;SDS011;53098;47.658;8.578;2022-07-11T05:29:32;4.13;;;1.30;;
66298;SDS011;53098;47.658;8.578;2022-07-11T05:31:57;5.90;;;1.50;;
66298;SDS011;53098;47.658;8.578;2022-07-11T05:34:23;7.43;;;1.43;;
66298;SDS011;53098;47.658;8.578;2022-07-11T05:36:48;4.70;;;1.43;;
66298;SDS011;53098;47.658;8.578;2022-07-11T05:39:14;4.97;;;1.40;;
66298;SDS011;53098;47.658;8.578;2022-07-11T05:41:39;3.85;;;1.13;;
66298;SDS011;53098;47.658;8.578;2022-07-11T05:44:04;5.47;;;1.07;;
66298;SDS011;53098;47.658;8.578;2022-07-11T05:46:29;3.73;;;1.73;;
66298;SDS011;53098;47.658;8.578;2022-07-11T05:48:55;8.40;;;1.33;;
66298;SDS011;53098;47.658;8.578;2022-07-11T05:51:20;5.40;;;1.53;;
66298;SDS011;53098;47.658;8.578;2022-07-11T05:53:45;5.93;;;1.20;;
66298;SDS011;53098;47.658;8.578;2022-07-11T05:56:11;4.50;;;1.37;;
66298;SDS011;53098;47.658;8.578;2022-07-11T05:58:36;6.10;;;1.63;;
66298;SDS011;53098;47.658;8.578;2022-07-11T06:01:01;7.22;;;1.40;;
66298;SDS011;53098;47.658;8.578;2022-07-11T06:03:27;5.53;;;1.40;;
66298;SDS011;53098;47.658;8.578;2022-07-11T06:05:52;9.50;;;1.07;;
66298;SDS011;53098;47.658;8.578;2022-07-11T06:08:17;5.90;;;1.20;;
66298;SDS011;53098;47.658;8.578;2022-07-11T06:10:42;5.13;;;1.17;;
66298;SDS011;53098;47.658;8.578;2022-07-11T06:13:08;4.03;;;1.20;;
66298;SDS011;53098;47.658;8.578;2022-07-11T06:15:33;7.20;;;1.13;;
66298;SDS011;53098;47.658;8.578;2022-07-11T06:17:58;5.47;;;1.10;;
66298;SDS011;53098;47.658;8.578;2022-07-11T06:20:24;4.10;;;1.07;;
66298;SDS011;53098;47.658;8.578;2022-07-11T06:22:49;4.70;;;1.40;;
66298;SDS011;53098;47.658;8.578;2022-07-11T06:25:14;4.23;;;1.30;;
66298;SDS011;53098;47.658;8.578;2022-07-11T06:27:40;8.13;;;1.30;;
66298;SDS011;53098;47.658;8.578;2022-07-11T06:30:05;4.63;;;1.30;;
66298;SDS011;53098;47.658;8.578;2022-07-11T06:32:30;3.55;;;1.08;;
66298;SDS011;53098;47.658;8.578;2022-07-11T06:34:56;3.43;;;1.27;;
66298;SDS011;53098;47.658;8.578;2022-07-11T06:37:22;3.72;;;1.00;;
66298;SDS011;53098;47.658;8.578;2022-07-11T06:39:47;8.25;;;1.58;;
66298;SDS011;53098;47.658;8.578;2022-07-11T06:42:13;4.33;;;1.20;;
66298;SDS011;53098;47.658;8.578;2022-07-11T06:44:38;5.35;;;1.42;;
66298;SDS011;53098;47.658;8.578;2022-07-11T06:47:03;5.00;;;1.37;;
66298;SDS011;53098;47.658;8.578;2022-07-11T06:49:28;5.47;;;1.10;;
66298;SDS011;53098;47.658;8.578;2022-07-11T06:51:54;3.65;;;1.00;;
66298;SDS011;53098;47.658;8.578;2022-07-11T06:54:19;5.90;;;1.20;;
66298;SDS011;53098;47.658;8.578;2022-07-11T06:56:44;5.77;;;1.10;;
66298;SDS011;53098;47.658;8.578;2022-07-11T06:59:10;4.70;;;1.37;;
66298;SDS011;53098;47.658;8.578;2022-07-11T07:01:35;6.27;;;1.40;;
66298;SDS011;53098;47.658;8.578;2022-07-11T07:04:00;3.17;;;1.13;;
66298;SDS011;53098;47.658;8.578;2022-07-11T07:06:25;3.23;;;1.17;;
66298;SDS011;53098;47.658;8.578;2022-07-11T07:08:51;6.97;;;1.30;;
66298;SDS011;53098;47.658;8.578;2022-07-11T07:11:16;6.37;;;1.33;;
66298;SDS011;53098;47.658;8.578;2022-07-11T07:13:41;4.40;;;1.27;;
66298;SDS011;53098;47.658;8.578;2022-07-11T07:16:06;4.40;;;1.40;;
66298;SDS011;53098;47.658;8.578;2022-07-11T07:18:32;4.73;;;1.20;;
66298;SDS011;53098;47.658;8.578;2022-07-11T07:20:57;4.68;;;0.95;;
66298;SDS011;53098;47.658;8.578;2022-07-11T07:23:23;5.53;;;1.87;;
66298;SDS011;53098;47.658;8.578;2022-07-11T07:25:48;4.40;;;0.90;;
66298;SDS011;53098;47.658;8.578;2022-07-11T07:28:13;4.93;;;1.10;;
66298;SDS011;53098;47.658;8.578;2022-07-11T07:30:38;5.13;;;1.57;;
66298;SDS011;53098;47.658;8.578;2022-07-11T07:33:04;3.47;;;0.80;;
66298;SDS011;53098;47.658;8.578;2022-07-11T07:35:29;6.37;;;1.50;;
66298;SDS011;53098;47.658;8.578;2022-07-11T07:37:54;4.80;;;1.37;;
66298;SDS011;53098;47.658;8.578;2022-07-11T07:40:20;5.67;;;1.20;;
66298;SDS011;53098;47.658;8.578;2022-07-11T07:42:45;7.90;;;1.90;;
66298;SDS011;53098;47.658;8.578;2022-07-11T07:45:11;6.43;;;1.85;;
66298;SDS011;53098;47.658;8.578;2022-07-11T07:47:36;6.93;;;1.73;;
66298;SDS011;53098;47.658;8.578;2022-07-11T07:50:02;5.37;;;1.50;;
66298;SDS011;53098;47.658;8.578;2022-07-11T07:52:27;3.70;;;1.42;;
66298;SDS011;53098;47.658;8.578;2022-07-11T07:54:52;5.27;;;1.57;;
66298;SDS011;53098;47.658;8.578;2022-07-11T07:57:18;6.80;;;1.40;;
66298;SDS011;53098;47.658;8.578;2022-07-11T07:59:43;12.93;;;1.50;;
66298;SDS011;53098;47.658;8.578;2022-07-11T08:02:08;5.43;;;2.00;;
66298;SDS011;53098;47.658;8.578;2022-07-11T08:04:34;5.93;;;1.37;;
66298;SDS011;53098;47.658;8.578;2022-07-11T08:06:59;4.57;;;1.33;;
66298;SDS011;53098;47.658;8.578;2022-07-11T08:09:24;4.13;;;1.48;;
66298;SDS011;53098;47.658;8.578;2022-07-11T08:11:50;4.50;;;1.10;;
66298;SDS011;53098;47.658;8.578;2022-07-11T08:14:15;8.00;;;1.40;;
66298;SDS011;53098;47.658;8.578;2022-07-11T08:16:40;4.40;;;1.00;;
66298;SDS011;53098;47.658;8.578;2022-07-11T08:19:06;3.00;;;1.10;;
66298;SDS011;53098;47.658;8.578;2022-07-11T08:21:31;3.03;;;1.10;;
66298;SDS011;53098;47.658;8.578;2022-07-11T08:23:57;3.72;;;1.33;;
66298;SDS011;53098;47.658;8.578;2022-07-11T08:26:23;4.18;;;1.13;;
66298;SDS011;53098;47.658;8.578;2022-07-11T08:28:48;3.70;;;1.10;;
66298;SDS011;53098;47.658;8.578;2022-07-11T08:31:13;3.87;;;0.90;;
66298;SDS011;53098;47.658;8.578;2022-07-11T08:33:39;6.23;;;1.30;;
66298;SDS011;53098;47.658;8.578;2022-07-11T08:36:04;6.60;;;1.30;;
66298;SDS011;53098;47.658;8.578;2022-07-11T08:38:30;4.90;;;1.33;;
66298;SDS011;53098;47.658;8.578;2022-07-11T08:40:55;4.93;;;1.10;;
66298;SDS011;53098;47.658;8.578;2022-07-11T08:43:26;4.53;;;1.10;;
66298;SDS011;53098;47.658;8.578;2022-07-11T08:45:52;10.45;;;1.10;;
66298;SDS011;53098;47.658;8.578;2022-07-11T08:48:17;4.60;;;1.10;;
66298;SDS011;53098;47.658;8.578;2022-07-11T08:50:44;4.30;;;1.10;;
66298;SDS011;53098;47.658;8.578;2022-07-11T08:53:09;9.45;;;1.20;;
66298;SDS011;53098;47.658;8.578;2022-07-11T08:55:35;3.03;;;0.95;;
66298;SDS011;53098;47.658;8.578;2022-07-11T08:58:00;5.22;;;1.20;;
66298;SDS011;53098;47.658;8.578;2022-07-11T09:00:26;2.88;;;0.68;;
66298;SDS011;53098;47.658;8.578;2022-07-11T09:02:52;3.80;;;1.00;;
66298;SDS011;53098;47.658;8.578;2022-07-11T09:05:17;4.10;;;1.02;;
66298;SDS011;53098;47.658;8.578;2022-07-11T09:07:44;3.50;;;0.90;;
66298;SDS011;53098;47.658;8.578;2022-07-11T09:10:10;5.43;;;1.10;;
66298;SDS011;53098;47.658;8.578;2022-07-11T09:12:35;2.17;;;0.90;;
66298;SDS011;53098;47.658;8.578;2022-07-11T09:15:00;3.38;;;1.00;;
66298;SDS011;53098;47.658;8.578;2022-07-11T09:17:29;3.77;;;1.23;;
66298;SDS011;53098;47.658;8.578;2022-07-11T09:19:54;5.13;;;1.30;;
66298;SDS011;53098;47.658;8.578;2022-07-11T09:22:20;2.05;;;0.90;;
66298;SDS011;53098;47.658;8.578;2022-07-11T09:24:55;2.53;;;0.95;;
66298;SDS011;53098;47.658;8.578;2022-07-11T09:27:20;2.55;;;0.80;;
66298;SDS011;53098;47.658;8.578;2022-07-11T09:29:46;4.13;;;1.10;;
66298;SDS011;53098;47.658;8.578;2022-07-11T09:32:11;4.47;;;1.20;;
66298;SDS011;53098;47.658;8.578;2022-07-11T09:34:36;4.23;;;1.50;;
66298;SDS011;53098;47.658;8.578;2022-07-11T09:37:01;5.23;;;0.90;;
66298;SDS011;53098;47.658;8.578;2022-07-11T09:39:27;3.55;;;1.30;;
66298;SDS011;53098;47.658;8.578;2022-07-11T09:41:53;2.80;;;0.90;;
66298;SDS011;53098;47.658;8.578;2022-07-11T09:46:46;4.75;;;0.93;;
66298;SDS011;53098;47.658;8.578;2022-07-11T09:49:11;2.53;;;0.63;;
66298;SDS011;53098;47.658;8.578;2022-07-11T09:51:38;2.40;;;0.95;;
66298;SDS011;53098;47.658;8.578;2022-07-11T09:54:03;3.13;;;0.80;;
66298;SDS011;53098;47.658;8.578;2022-07-11T09:59:00;1.77;;;1.10;;
66298;SDS011;53098;47.658;8.578;2022-07-11T10:01:26;4.93;;;0.80;;
66298;SDS011;53098;47.658;8.578;2022-07-11T10:03:52;4.38;;;0.95;;
66298;SDS011;53098;47.658;8.578;2022-07-11T10:06:17;4.43;;;0.83;;
66298;SDS011;53098;47.658;8.578;2022-07-11T10:08:42;3.37;;;0.70;;
66298;SDS011;53098;47.658;8.578;2022-07-11T10:11:08;4.93;;;0.93;;
66298;SDS011;53098;47.658;8.578;2022-07-11T10:13:33;1.75;;;0.82;;
66298;SDS011;53098;47.658;8.578;2022-07-11T10:15:58;3.78;;;0.82;;
66298;SDS011;53098;47.658;8.578;2022-07-11T10:18:29;2.03;;;0.80;;
66298;SDS011;53098;47.658;8.578;2022-07-11T10:21:19;3.55;;;1.10;;
66298;SDS011;53098;47.658;8.578;2022-07-11T10:23:52;3.20;;;0.88;;
66298;SDS011;53098;47.658;8.578;2022-07-11T10:26:32;2.65;;;0.68;;
66298;SDS011;53098;47.658;8.578;2022-07-11T10:29:07;3.03;;;0.60;;
66298;SDS011;53098;47.658;8.578;2022-07-11T10:31:34;3.20;;;0.80;;
66298;SDS011;53098;47.658;8.578;2022-07-11T10:34:01;3.47;;;1.00;;
66298;SDS011;53098;47.658;8.578;2022-07-11T10:36:27;2.40;;;0.57;;
66298;SDS011;53098;47.658;8.578;2022-07-11T10:41:36;1.60;;;0.60;;
66298;SDS011;53098;47.658;8.578;2022-07-11T10:44:01;1.83;;;0.50;;
66298;SDS011;53098;47.658;8.578;2022-07-11T10:46:26;0.50;;;0.50;;
66298;SDS011;53098;47.658;8.578;2022-07-11T10:48:58;5.07;;;0.63;;
66298;SDS011;53098;47.658;8.578;2022-07-11T10:51:28;1.70;;;0.60;;
66298;SDS011;53098;47.658;8.578;2022-07-11T10:54:04;1.67;;;0.70;;
66298;SDS011;53098;47.658;8.578;2022-07-11T11:01:32;2.40;;;0.60;;
66298;SDS011;53098;47.658;8.578;2022-07-11T11:04:44;1.67;;;0.70;;
66298;SDS011;53098;47.658;8.578;2022-07-11T11:06:55;1.75;;;0.70;;
66298;SDS011;53098;47.658;8.578;2022-07-11T11:09:36;1.05;;;0.35;;
66298;SDS011;53098;47.658;8.578;2022-07-11T11:12:02;1.13;;;0.63;;
66298;SDS011;53098;47.658;8.578;2022-07-11T11:14:27;0.68;;;0.43;;
66298;SDS011;53098;47.658;8.578;2022-07-11T11:16:53;1.50;;;0.40;;
66298;SDS011;53098;47.658;8.578;2022-07-11T11:22:11;4.78;;;0.57;;
66298;SDS011;53098;47.658;8.578;2022-07-11T11:24:37;2.33;;;0.52;;
66298;SDS011;53098;47.658;8.578;2022-07-11T11:27:02;1.52;;;0.75;;
66298;SDS011;53098;47.658;8.578;2022-07-11T11:29:28;2.30;;;0.30;;
66298;SDS011;53098;47.658;8.578;2022-07-11T11:31:54;4.47;;;0.52;;
66298;SDS011;53098;47.658;8.578;2022-07-11T11:34:20;2.03;;;0.60;;
66298;SDS011;53098;47.658;8.578;2022-07-11T11:36:51;5.07;;;0.60;;
66298;SDS011;53098;47.658;8.578;2022-07-11T11:39:24;3.13;;;0.82;;
66298;SDS011;53098;47.658;8.578;2022-07-11T11:41:49;0.70;;;0.40;;
66298;SDS011;53098;47.658;8.578;2022-07-11T11:44:15;0.60;;;0.40;;
66298;SDS011;53098;47.658;8.578;2022-07-11T11:46:40;1.80;;;0.80;;
66298;SDS011;53098;47.658;8.578;2022-07-11T11:49:05;0.50;;;0.43;;
66298;SDS011;53098;47.658;8.578;2022-07-11T11:51:31;1.40;;;0.53;;
66298;SDS011;53098;47.658;8.578;2022-07-11T11:53:58;1.60;;;0.60;;
66298;SDS011;53098;47.658;8.578;2022-07-11T11:56:24;3.72;;;0.57;;
66298;SDS011;53098;47.658;8.578;2022-07-11T11:58:51;1.13;;;0.80;;
66298;SDS011;53098;47.658;8.578;2022-07-11T12:01:20;7.60;;;0.75;;
66298;SDS011;53098;47.658;8.578;2022-07-11T12:03:49;2.03;;;0.60;;
66298;SDS011;53098;47.658;8.578;2022-07-11T12:06:14;0.80;;;0.43;;
66298;SDS011;53098;47.658;8.578;2022-07-11T12:08:40;2.85;;;0.68;;
66298;SDS011;53098;47.658;8.578;2022-07-11T12:11:05;1.73;;;0.70;;
66298;SDS011;53098;47.658;8.578;2022-07-11T12:13:30;1.40;;;0.45;;
66298;SDS011;53098;47.658;8.578;2022-07-11T12:15:56;1.80;;;0.50;;
66298;SDS011;53098;47.658;8.578;2022-07-11T12:18:21;1.23;;;0.70;;
66298;SDS011;53098;47.658;8.578;2022-07-11T12:20:46;2.28;;;0.60;;
66298;SDS011;53098;47.658;8.578;2022-07-11T12:23:13;1.15;;;0.80;;
66298;SDS011;53098;47.658;8.578;2022-07-11T12:25:40;0.82;;;0.55;;
66298;SDS011;53098;47.658;8.578;2022-07-11T12:28:06;5.65;;;0.63;;
66298;SDS011;53098;47.658;8.578;2022-07-11T12:30:31;1.33;;;0.63;;
66298;SDS011;53098;47.658;8.578;2022-07-11T12:33:10;2.38;;;0.60;;
66298;SDS011;53098;47.658;8.578;2022-07-11T12:35:35;0.68;;;0.45;;
66298;SDS011;53098;47.658;8.578;2022-07-11T12:38:01;3.87;;;0.60;;
66298;SDS011;53098;47.658;8.578;2022-07-11T12:40:26;3.13;;;0.60;;
66298;SDS011;53098;47.658;8.578;2022-07-11T12:42:51;1.97;;;1.07;;
66298;SDS011;53098;47.658;8.578;2022-07-11T12:45:16;1.50;;;0.70;;
66298;SDS011;53098;47.658;8.578;2022-07-11T12:47:48;1.45;;;0.70;;
66298;SDS011;53098;47.658;8.578;2022-07-11T12:50:15;3.60;;;0.68;;
66298;SDS011;53098;47.658;8.578;2022-07-11T12:52:41;0.82;;;0.52;;
66298;SDS011;53098;47.658;8.578;2022-07-11T12:55:07;2.00;;;0.60;;
66298;SDS011;53098;47.658;8.578;2022-07-11T12:57:32;1.60;;;0.60;;
66298;SDS011;53098;47.658;8.578;2022-07-11T13:00:09;2.15;;;0.60;;
66298;SDS011;53098;47.658;8.578;2022-07-11T13:02:35;2.10;;;0.70;;
66298;SDS011;53098;47.658;8.578;2022-07-11T13:05:00;2.15;;;0.68;;
66298;SDS011;53098;47.658;8.578;2022-07-11T13:09:51;4.27;;;0.90;;
66298;SDS011;53098;47.658;8.578;2022-07-11T13:12:16;1.23;;;0.53;;
66298;SDS011;53098;47.658;8.578;2022-07-11T13:14:41;1.50;;;0.70;;
66298;SDS011;53098;47.658;8.578;2022-07-11T13:17:06;3.30;;;0.50;;
66298;SDS011;53098;47.658;8.578;2022-07-11T13:19:32;8.18;;;0.93;;
66298;SDS011;53098;47.658;8.578;2022-07-11T13:21:57;1.90;;;0.60;;
66298;SDS011;53098;47.658;8.578;2022-07-11T13:24:22;2.28;;;1.02;;
66298;SDS011;53098;47.658;8.578;2022-07-11T13:26:48;2.57;;;0.70;;
66298;SDS011;53098;47.658;8.578;2022-07-11T13:29:13;3.60;;;0.73;;
66298;SDS011;53098;47.658;8.578;2022-07-11T13:31:38;1.23;;;0.47;;
66298;SDS011;53098;47.658;8.578;2022-07-11T13:34:04;2.20;;;0.60;;
66298;SDS011;53098;47.658;8.578;2022-07-11T13:36:29;2.03;;;0.73;;
66298;SDS011;53098;47.658;8.578;2022-07-11T13:38:54;7.30;;;0.70;;
66298;SDS011;53098;47.658;8.578;2022-07-11T13:41:19;1.37;;;0.63;;
66298;SDS011;53098;47.658;8.578;2022-07-11T13:43:45;1.52;;;0.80;;
66298;SDS011;53098;47.658;8.578;2022-07-11T13:46:11;2.55;;;0.60;;
66298;SDS011;53098;47.658;8.578;2022-07-11T13:48:36;1.80;;;0.80;;
66298;SDS011;53098;47.658;8.578;2022-07-11T13:51:01;1.40;;;0.73;;
66298;SDS011;53098;47.658;8.578;2022-07-11T13:53:27;2.20;;;0.80;;
66298;SDS011;53098;47.658;8.578;2022-07-11T13:55:52;4.83;;;0.67;;
66298;SDS011;53098;47.658;8.578;2022-07-11T13:58:17;3.10;;;0.80;;
66298;SDS011;53098;47.658;8.578;2022-07-11T14:00:42;2.80;;;0.80;;
66298;SDS011;53098;47.658;8.578;2022-07-11T14:03:08;3.15;;;0.70;;
66298;SDS011;53098;47.658;8.578;2022-07-11T14:05:33;3.63;;;0.70;;
66298;SDS011;53098;47.658;8.578;2022-07-11T14:07:58;1.67;;;0.80;;
66298;SDS011;53098;47.658;8.578;2022-07-11T14:10:24;4.97;;;0.63;;
66298;SDS011;53098;47.658;8.578;2022-07-11T14:12:49;0.83;;;0.63;;
66298;SDS011;53098;47.658;8.578;2022-07-11T14:15:14;2.13;;;0.63;;
66298;SDS011;53098;47.658;8.578;2022-07-11T14:17:40;3.03;;;0.70;;
66298;SDS011;53098;47.658;8.578;2022-07-11T14:20:05;3.77;;;0.70;;
66298;SDS011;53098;47.658;8.578;2022-07-11T14:22:30;2.55;;;0.50;;
66298;SDS011;53098;47.658;8.578;2022-07-11T14:24:56;4.40;;;0.73;;
66298;SDS011;53098;47.658;8.578;2022-07-11T14:27:21;3.57;;;0.80;;
66298;SDS011;53098;47.658;8.578;2022-07-11T14:29:46;2.47;;;0.70;;
66298;SDS011;53098;47.658;8.578;2022-07-11T14:32:12;2.25;;;0.80;;
66298;SDS011;53098;47.658;8.578;2022-07-11T14:34:38;2.88;;;0.80;;
66298;SDS011;53098;47.658;8.578;2022-07-11T14:37:03;2.25;;;0.50;;
66298;SDS011;53098;47.658;8.578;2022-07-11T14:39:29;2.05;;;0.77;;
66298;SDS011;53098;47.658;8.578;2022-07-11T14:41:54;2.95;;;0.90;;
66298;SDS011;53098;47.658;8.578;2022-07-11T14:44:19;5.53;;;0.70;;
66298;SDS011;53098;47.658;8.578;2022-07-11T14:46:45;1.53;;;0.70;;
66298;SDS011;53098;47.658;8.578;2022-07-11T14:49:10;5.70;;;0.70;;
66298;SDS011;53098;47.658;8.578;2022-07-11T14:51:35;3.40;;;0.77;;
66298;SDS011;53098;47.658;8.578;2022-07-11T14:54:01;2.43;;;0.80;;
66298;SDS011;53098;47.658;8.578;2022-07-11T14:56:26;4.75;;;0.70;;
66298;SDS011;53098;47.658;8.578;2022-07-11T14:58:51;2.13;;;0.80;;